Time;durP1;ratioP1;P1;durP2;ratioP2;P2;SDS_P1;SDS_P2;PMS_P1;PMS_P2;Temp;Humidity;BMP_temperature;BMP_pressure;BME280_temperature;BME280_humidity;BME280_pressure;Samples;Min_cycle;Max_cycle;Signal;HPM_P1;HPM_P2
2023/06/18 00:02:21;;;;;;;10.25;9.20;;;23.90;65.10;;;;;;4703031;56;21563;-35
2023/06/18 00:07:22;;;;;;;11.15;9.40;;;23.90;65.10;;;;;;4615545;60;21140;-37
2023/06/18 00:12:23;;;;;;;10.55;9.55;;;23.90;65.10;;;;;;4615279;60;21115;-37
2023/06/18 00:17:23;;;;;;;10.55;9.30;;;23.90;65.10;;;;;;4822002;56;21570;-34
2023/06/18 00:22:24;;;;;;;10.32;9.32;;;23.90;65.10;;;;;;4687917;56;21515;-39
2023/06/18 00:27:25;;;;;;;9.18;8.30;;;23.90;65.10;;;;;;4667862;56;21017;-35
2023/06/18 00:32:28;;;;;;;10.90;9.80;;;23.90;65.10;;;;;;4829983;56;21599;-37
2023/06/18 00:37:29;;;;;;;10.60;9.50;;;23.90;65.10;;;;;;4698870;56;21463;-38
2023/06/18 00:42:31;;;;;;;9.57;8.57;;;23.90;65.10;;;;;;4646284;56;21598;-36
2023/06/18 00:47:32;;;;;;;9.95;9.05;;;23.90;65.10;;;;;;4772216;56;21579;-36
2023/06/18 00:52:37;;;;;;;10.07;9.07;;;23.90;65.10;;;;;;4698100;56;21395;-36
2023/06/18 00:57:38;;;;;;;10.13;9.13;;;23.90;65.10;;;;;;4634961;56;21022;-37
2023/06/18 01:02:45;;;;;;;10.73;9.43;;;23.90;65.00;;;;;;4721904;56;21108;-39
2023/06/18 01:07:49;;;;;;;;;;;23.90;65.00;;;;;;4661720;56;21563;-37
2023/06/18 01:12:50;;;;;;;9.68;8.68;;;23.90;65.10;;;;;;4693825;55;20086;-37
2023/06/18 01:17:56;;;;;;;9.60;8.60;;;23.90;65.00;;;;;;4615643;60;21602;-40
2023/06/18 01:23:01;;;;;;;9.65;8.65;;;23.90;65.00;;;;;;4615961;60;21471;-37
2023/06/18 01:28:07;;;;;;;9.50;8.60;;;23.90;65.00;;;;;;4675558;56;21443;-33
2023/06/18 01:33:12;;;;;;;9.83;8.93;;;23.90;65.10;;;;;;4615989;60;21547;-38
2023/06/18 01:38:43;;;;;;;9.15;8.25;;;23.90;65.10;;;;;;4839599;56;21583;-38
2023/06/18 01:43:58;;;;;;;9.15;8.25;;;23.90;65.00;;;;;;4615207;60;21073;-37
2023/06/18 01:49:04;;;;;;;8.98;8.18;;;23.90;65.00;;;;;;4615621;56;21591;-37
2023/06/18 01:54:06;;;;;;;9.50;8.60;;;23.90;65.00;;;;;;4669427;56;21499;-36
2023/06/18 01:59:07;;;;;;;9.43;8.45;;;23.80;65.00;;;;;;4615714;60;21622;-37
2023/06/18 02:04:08;;;;;;;9.85;8.85;;;23.90;65.00;;;;;;4676534;56;21140;-37
2023/06/18 02:09:09;;;;;;;8.88;7.97;;;23.80;64.90;;;;;;4667121;56;21162;-35
2023/06/18 02:14:10;;;;;;;9.15;8.35;;;23.90;65.00;;;;;;4697554;56;21013;-34
2023/06/18 02:19:11;;;;;;;8.35;7.55;;;23.90;65.00;;;;;;4647635;56;21467;-37
2023/06/18 02:24:11;;;;;;;9.25;8.35;;;23.80;64.90;;;;;;4615395;60;21017;-35
2023/06/18 02:29:12;;;;;;;8.45;7.65;;;23.90;65.00;;;;;;4650086;56;21479;-38
2023/06/18 02:34:15;;;;;;;9.07;8.18;;;23.90;64.90;;;;;;4643267;56;21085;-35
2023/06/18 02:39:16;;;;;;;8.07;7.28;;;23.80;64.90;;;;;;4625954;56;21583;-35
2023/06/18 02:44:17;;;;;;;8.63;7.82;;;23.80;64.80;;;;;;4615948;60;21579;-35
2023/06/18 02:49:18;;;;;;;8.43;7.62;;;23.80;64.90;;;;;;4803274;56;21078;-37
2023/06/18 02:54:20;;;;;;;9.07;8.18;;;23.80;64.80;;;;;;4616950;56;21574;-39
2023/06/18 02:59:21;;;;;;;7.50;6.80;;;23.80;64.80;;;;;;4615786;60;21563;-38
2023/06/18 03:04:22;;;;;;;7.70;7.00;;;23.80;64.80;;;;;;4709308;56;21072;-37
2023/06/18 03:09:23;;;;;;;8.82;7.95;;;23.80;64.80;;;;;;4617859;56;21507;-35
2023/06/18 03:14:25;;;;;;;8.40;7.45;;;23.80;64.80;;;;;;4633619;56;21025;-37
2023/06/18 03:19:26;;;;;;;8.70;7.85;;;23.80;64.80;;;;;;4615836;60;21503;-37
2023/06/18 03:24:26;;;;;;;7.87;7.10;;;23.80;64.80;;;;;;4615321;60;21069;-33
2023/06/18 03:29:30;;;;;;;8.35;7.55;;;23.80;64.80;;;;;;4651133;56;21531;-37
2023/06/18 03:34:31;;;;;;;7.90;7.10;;;23.80;64.80;;;;;;4615104;60;21197;-38
2023/06/18 03:39:32;;;;;;;8.18;7.37;;;23.80;64.70;;;;;;4690737;56;21144;-35
2023/06/18 03:44:33;;;;;;;7.80;7.00;;;23.80;64.80;;;;;;4615525;60;21013;-34
2023/06/18 03:49:34;;;;;;;8.07;7.35;;;23.80;64.70;;;;;;4637194;56;21037;-32
2023/06/18 03:54:35;;;;;;;8.02;7.32;;;23.80;64.80;;;;;;4745340;56;21028;-37
2023/06/18 03:59:35;;;;;;;7.97;6.87;;;23.80;64.70;;;;;;4638843;56;21518;-38
2023/06/18 04:04:37;;;;;;;7.53;6.82;;;23.80;64.80;;;;;;4860246;56;21021;-36
2023/06/18 04:09:38;;;;;;;7.68;6.90;;;23.80;64.70;;;;;;4696497;56;21044;-39
2023/06/18 04:14:39;;;;;;;7.75;7.03;;;23.80;64.70;;;;;;4744170;56;21110;-38
2023/06/18 04:19:40;;;;;;;7.15;6.53;;;23.80;64.70;;;;;;4620932;56;21514;-36
2023/06/18 04:24:41;;;;;;;7.37;6.70;;;23.80;64.60;;;;;;4728483;56;21017;-36
2023/06/18 04:29:41;;;;;;;7.30;6.60;;;23.80;65.00;;;;;;4615731;60;21033;-38
2023/06/18 04:34:42;;;;;;;7.75;6.90;;;23.80;64.60;;;;;;4774606;56;21019;-35
2023/06/18 04:39:43;;;;;;;7.62;6.93;;;23.80;64.60;;;;;;4811243;56;21515;-36
2023/06/18 04:44:44;;;;;;;8.07;7.28;;;23.80;64.60;;;;;;4654046;56;21021;-38
2023/06/18 04:49:45;;;;;;;7.10;6.50;;;23.80;64.50;;;;;;4646009;56;21564;-39
2023/06/18 04:54:46;;;;;;;7.18;6.53;;;23.80;64.60;;;;;;4614607;60;21061;-37
2023/06/18 04:59:46;;;;;;;7.50;6.80;;;23.80;64.50;;;;;;4616112;60;21077;-36
2023/06/18 05:04:47;;;;;;;6.93;6.32;;;23.80;64.50;;;;;;4622297;56;21029;-37
2023/06/18 05:09:48;;;;;;;7.35;6.65;;;23.80;64.50;;;;;;4615375;60;21037;-36
2023/06/18 05:14:49;;;;;;;7.55;6.75;;;23.80;64.50;;;;;;4628143;56;21030;-37
2023/06/18 05:19:50;;;;;;;7.40;6.70;;;23.80;64.40;;;;;;4623462;56;21033;-37
2023/06/18 05:24:51;;;;;;;7.68;6.97;;;23.80;64.50;;;;;;4695964;56;21025;-38
2023/06/18 05:29:54;;;;;;;7.05;6.45;;;23.80;64.40;;;;;;4615621;60;21590;-35
2023/06/18 05:34:55;;;;;;;7.03;6.32;;;23.80;64.50;;;;;;4655301;56;21507;-36
2023/06/18 05:39:56;;;;;;;7.37;6.68;;;23.80;64.40;;;;;;4661739;56;21643;-36
2023/06/18 05:44:56;;;;;;;6.75;6.22;;;23.80;64.40;;;;;;4615486;60;21013;-37
2023/06/18 05:49:57;;;;;;;7.15;6.45;;;23.80;64.50;;;;;;4615159;60;21021;-35
2023/06/18 05:54:58;;;;;;;7.00;6.40;;;23.80;64.40;;;;;;4621097;56;21112;-36
2023/06/18 05:59:59;;;;;;;7.07;6.47;;;23.80;64.50;;;;;;4742183;56;21088;-38
2023/06/18 06:05:00;;;;;;;7.75;7.05;;;23.80;64.40;;;;;;4720456;56;21089;-37
2023/06/18 06:10:01;;;;;;;7.70;6.45;;;23.80;64.50;;;;;;4678412;56;21552;-37
2023/06/18 06:15:02;;;;;;;7.22;6.53;;;23.80;64.40;;;;;;4633244;56;21064;-36
2023/06/18 06:20:03;;;;;;;7.47;6.78;;;23.80;64.40;;;;;;4659425;56;21085;-38
2023/06/18 06:25:05;;;;;;;7.72;7.03;;;23.80;64.30;;;;;;4622348;56;21064;-36
2023/06/18 06:30:07;;;;;;;8.27;7.00;;;23.80;64.40;;;;;;4621427;56;21057;-37
2023/06/18 06:35:08;;;;;;;7.60;6.90;;;23.80;64.30;;;;;;4788163;56;21534;-36
2023/06/18 06:40:10;;;;;;;8.05;6.80;;;23.80;64.30;;;;;;4683269;56;21140;-38
2023/06/18 06:45:11;;;;;;;7.90;7.10;;;23.80;64.40;;;;;;4689957;56;21010;-35
2023/06/18 06:50:12;;;;;;;7.30;6.60;;;23.80;64.20;;;;;;4655472;56;21090;-37
2023/06/18 06:55:13;;;;;;;7.72;6.97;;;23.80;64.30;;;;;;4754023;56;21077;-38
2023/06/18 07:00:14;;;;;;;7.87;6.90;;;23.80;64.20;;;;;;4615522;60;21145;-37
2023/06/18 07:05:15;;;;;;;7.80;7.00;;;23.80;64.20;;;;;;4717902;56;20993;-36
2023/06/18 07:10:16;;;;;;;7.82;7.12;;;23.80;64.20;;;;;;4636997;56;21076;-38
2023/06/18 07:15:17;;;;;;;8.10;7.22;;;23.80;64.20;;;;;;4615496;60;21488;-38
2023/06/18 07:20:18;;;;;;;8.10;7.30;;;23.80;64.20;;;;;;4616435;56;21567;-37
2023/06/18 07:25:19;;;;;;;8.65;7.65;;;23.80;64.20;;;;;;4634577;56;20981;-39
2023/06/18 07:30:20;;;;;;;7.80;7.05;;;23.80;64.10;;;;;;4674509;56;21665;-39
2023/06/18 07:35:21;;;;;;;7.53;6.82;;;23.80;64.30;;;;;;4642210;56;21547;-36
2023/06/18 07:40:22;;;;;;;8.27;7.47;;;23.80;64.20;;;;;;4690037;56;21121;-37
2023/06/18 07:45:23;;;;;;;8.77;7.70;;;23.80;64.30;;;;;;4689774;56;21089;-38
2023/06/18 07:50:23;;;;;;;8.43;7.43;;;23.80;64.20;;;;;;4619921;56;21073;-35
2023/06/18 07:55:24;;;;;;;8.80;7.50;;;23.80;64.20;;;;;;4640731;56;21108;-38
2023/06/18 08:00:25;;;;;;;8.27;7.45;;;23.80;64.10;;;;;;4640749;56;21021;-39
2023/06/18 08:05:26;;;;;;;8.02;7.15;;;23.80;64.20;;;;;;4672086;56;21069;-36
2023/06/18 08:10:28;;;;;;;8.85;7.97;;;23.80;64.20;;;;;;4646341;56;21061;-37
2023/06/18 08:15:29;;;;;;;8.18;7.40;;;23.80;64.20;;;;;;4614872;60;21518;-40
2023/06/18 08:20:30;;;;;;;8.02;7.25;;;23.80;64.20;;;;;;4615175;60;21073;-37
2023/06/18 08:25:31;;;;;;;8.20;7.40;;;23.80;65.00;;;;;;4683778;56;21511;-36
2023/06/18 08:30:32;;;;;;;8.55;7.75;;;23.80;64.20;;;;;;4615700;56;21046;-39
2023/06/18 08:35:33;;;;;;;8.93;8.02;;;23.80;64.30;;;;;;4614715;60;22207;-37
2023/06/18 08:40:48;;;;;;;8.77;7.80;;;23.80;64.70;;;;;;4656781;56;21616;-37
2023/06/18 08:45:53;;;;;;;8.43;7.62;;;23.80;64.30;;;;;;4615317;60;21069;-42
2023/06/18 08:51:02;;;;;;;8.65;7.78;;;23.80;64.30;;;;;;4710465;56;21033;-39
2023/06/18 08:56:04;;;;;;;10.25;8.27;;;23.80;64.30;;;;;;4713619;56;21052;-37
2023/06/18 09:01:06;;;;;;;8.18;7.37;;;23.80;64.40;;;;;;4653647;56;21089;-39
2023/06/18 09:06:07;;;;;;;8.40;7.60;;;23.80;64.40;;;;;;4634573;56;21029;-36
2023/06/18 09:11:08;;;;;;;8.50;7.70;;;23.80;64.40;;;;;;4671337;56;21073;-35
2023/06/18 09:16:10;;;;;;;8.07;7.32;;;23.80;64.40;;;;;;4614665;56;21093;-38
2023/06/18 09:21:30;;;;;;;8.80;7.90;;;23.80;64.40;;;;;;4615579;60;21096;-34
2023/06/18 09:26:33;;;;;;;9.13;8.25;;;23.80;64.50;;;;;;4621001;56;21161;-36
2023/06/18 09:31:44;;;;;;;8.15;7.35;;;23.80;64.50;;;;;;4642195;56;21468;-39
2023/06/18 09:36:50;;;;;;;8.93;8.02;;;23.80;64.40;;;;;;4678555;56;21546;-38
2023/06/18 09:41:55;;;;;;;9.02;8.13;;;23.80;64.50;;;;;;4619366;56;21085;-42
2023/06/18 09:46:59;;;;;;;9.20;8.30;;;23.80;64.50;;;;;;4646009;56;21538;-38
2023/06/18 09:52:00;;;;;;;9.18;8.27;;;23.80;64.50;;;;;;4615035;60;21029;-38
2023/06/18 09:57:02;;;;;;;8.50;7.70;;;23.80;64.50;;;;;;4614858;60;21081;-36
2023/06/18 10:02:05;;;;;;;8.35;7.55;;;23.80;64.60;;;;;;4802468;56;21028;-36
2023/06/18 10:07:15;;;;;;;9.07;8.23;;;23.90;64.60;;;;;;4704534;56;21555;-37
2023/06/18 10:12:17;;;;;;;8.88;8.02;;;23.80;64.60;;;;;;4624564;56;21024;-38
2023/06/18 10:17:25;;;;;;;9.07;8.10;;;23.90;64.70;;;;;;4677906;56;21066;-37
2023/06/18 10:22:29;;;;;;;8.57;7.72;;;23.80;64.60;;;;;;4629836;56;21029;-38
2023/06/18 10:27:30;;;;;;;9.38;8.48;;;23.80;64.70;;;;;;4664458;56;21475;-36
2023/06/18 10:32:33;;;;;;;8.50;7.70;;;23.80;64.70;;;;;;4615542;57;21032;-37
2023/06/18 10:37:34;;;;;;;9.07;7.47;;;23.80;64.70;;;;;;4695815;56;21342;-36
2023/06/18 10:42:35;;;;;;;8.45;7.60;;;23.90;64.70;;;;;;4634338;56;21554;-39
2023/06/18 10:47:36;;;;;;;8.75;7.87;;;23.90;64.80;;;;;;4623385;56;21026;-39
2023/06/18 10:52:43;;;;;;;8.93;7.70;;;23.80;64.70;;;;;;4741214;56;21114;-37
2023/06/18 10:57:46;;;;;;;8.23;7.40;;;23.90;64.80;;;;;;4662319;56;21073;-38
2023/06/18 11:02:49;;;;;;;8.30;7.47;;;23.90;64.80;;;;;;4635801;56;21162;-38
2023/06/18 11:08:05;;;;;;;8.77;7.87;;;23.90;64.80;;;;;;4615870;60;21495;-37
2023/06/18 11:13:08;;;;;;;8.00;7.20;;;23.90;64.80;;;;;;4615690;60;21049;-37
2023/06/18 11:18:10;;;;;;;8.40;7.60;;;23.90;64.80;;;;;;4664618;56;21160;-39
2023/06/18 11:23:11;;;;;;;8.20;7.43;;;23.90;64.80;;;;;;4653124;56;21101;-38
2023/06/18 11:28:13;;;;;;;8.43;7.62;;;23.90;64.80;;;;;;4636939;56;21567;-38
2023/06/18 11:33:27;;;;;;;8.93;8.02;;;23.90;64.80;;;;;;4651907;56;21606;-38
2023/06/18 11:38:30;;;;;;;8.77;7.97;;;23.90;64.80;;;;;;4615441;60;21085;-37
2023/06/18 11:43:47;;;;;;;8.55;7.50;;;23.90;64.80;;;;;;4615672;60;21069;-41
2023/06/18 11:48:47;;;;;;;7.97;7.28;;;23.90;64.90;;;;;;4615401;60;21017;-37
2023/06/18 11:53:48;;;;;;;8.55;7.60;;;23.90;64.90;;;;;;4628225;56;21033;-34
2023/06/18 11:58:49;;;;;;;9.05;8.20;;;23.90;64.90;;;;;;4628431;56;21061;-34
2023/06/18 12:03:50;;;;;;;8.43;7.62;;;24.00;64.70;;;;;;4632138;56;21566;-39
2023/06/18 12:08:51;;;;;;;8.90;8.00;;;23.90;64.70;;;;;;4660945;56;21140;-36
2023/06/18 12:13:56;;;;;;;8.63;7.82;;;23.90;64.80;;;;;;4615330;60;21510;-37
2023/06/18 12:19:03;;;;;;;8.30;7.55;;;23.90;64.80;;;;;;4645644;56;21077;-38
2023/06/18 12:24:05;;;;;;;9.05;8.15;;;24.00;64.70;;;;;;4720841;56;21061;-39
2023/06/18 12:29:06;;;;;;;8.88;8.00;;;23.90;64.80;;;;;;4643034;56;21574;-37
2023/06/18 12:34:22;;;;;;;8.68;7.87;;;24.00;64.50;;;;;;4697528;56;21583;-37
2023/06/18 12:39:23;;;;;;;8.75;7.90;;;24.00;64.60;;;;;;4717685;56;21677;-35
2023/06/18 12:44:27;;;;;;;8.40;7.60;;;24.10;64.50;;;;;;4749588;56;21100;-36
2023/06/18 12:49:37;;;;;;;8.70;7.90;;;24.10;64.40;;;;;;4615210;60;21507;-35
2023/06/18 12:54:38;;;;;;;9.40;8.50;;;24.10;64.40;;;;;;4614861;57;21580;-36
2023/06/18 12:59:49;;;;;;;9.00;8.20;;;24.10;64.30;;;;;;4644631;56;21041;-36
2023/06/18 13:04:50;;;;;;;9.13;8.10;;;24.10;64.30;;;;;;4654980;56;21571;-37
2023/06/18 13:09:51;;;;;;;9.18;8.27;;;24.10;64.40;;;;;;4662247;56;21089;-36
2023/06/18 13:14:52;;;;;;;9.02;8.13;;;24.10;64.40;;;;;;4615116;60;21530;-36
2023/06/18 13:19:52;;;;;;;8.82;8.02;;;24.10;64.30;;;;;;4630258;56;21077;-36
2023/06/18 13:24:56;;;;;;;9.50;8.60;;;24.10;64.30;;;;;;4672668;56;21519;-35
2023/06/18 13:29:57;;;;;;;9.18;8.27;;;24.10;64.30;;;;;;4654977;56;21491;-36
2023/06/18 13:35:02;;;;;;;8.85;8.05;;;24.10;64.30;;;;;;4622594;56;21033;-39
2023/06/18 13:40:04;;;;;;;9.55;8.65;;;24.10;64.30;;;;;;4620630;56;21586;-34
2023/06/18 13:45:05;;;;;;;9.27;8.38;;;24.10;64.30;;;;;;4658657;56;21500;-35
2023/06/18 13:50:08;;;;;;;9.20;8.30;;;24.00;64.40;;;;;;4691956;56;21021;-34
2023/06/18 13:55:09;;;;;;;9.70;8.80;;;24.10;64.40;;;;;;4795521;56;21587;-37
2023/06/18 14:00:11;;;;;;;9.73;8.82;;;24.00;64.40;;;;;;4618618;56;21093;-37
2023/06/18 14:05:11;;;;;;;9.05;8.23;;;24.10;64.50;;;;;;4659926;56;21018;-35
2023/06/18 14:10:12;;;;;;;9.20;8.30;;;24.10;64.50;;;;;;4653085;56;20989;-38
2023/06/18 14:15:13;;;;;;;9.23;8.38;;;24.00;64.60;;;;;;4615886;56;21160;-36
2023/06/18 14:20:16;;;;;;;9.60;8.70;;;24.10;64.40;;;;;;4615695;60;21119;-38
2023/06/18 14:25:16;;;;;;;9.60;8.70;;;24.00;64.50;;;;;;4627167;56;21060;-38
2023/06/18 14:30:17;;;;;;;8.75;7.95;;;24.00;64.50;;;;;;4615626;60;21017;-38
2023/06/18 14:35:20;;;;;;;9.45;8.52;;;24.00;64.50;;;;;;4658373;56;21033;-36
2023/06/18 14:40:20;;;;;;;9.55;8.65;;;24.00;64.50;;;;;;4639950;56;21495;-33
2023/06/18 14:45:24;;;;;;;8.73;7.93;;;24.10;64.50;;;;;;4615983;60;21081;-37
2023/06/18 14:50:25;;;;;;;8.88;8.02;;;24.00;64.60;;;;;;4653700;56;21077;-37
2023/06/18 14:55:26;;;;;;;10.10;9.10;;;24.00;64.70;;;;;;4645111;56;21038;-39
2023/06/18 15:00:27;;;;;;;9.95;8.98;;;24.00;64.50;;;;;;4615943;58;21041;-38
2023/06/18 15:05:28;;;;;;;9.52;8.63;;;24.00;64.50;;;;;;4831277;56;20997;-37
2023/06/18 15:10:29;;;;;;;9.77;8.88;;;24.00;64.60;;;;;;4639186;56;21077;-33
2023/06/18 15:15:30;;;;;;;10.13;9.05;;;24.00;64.60;;;;;;4709407;56;21105;-37
2023/06/18 15:20:38;;;;;;;8.90;8.00;;;24.00;64.60;;;;;;4635958;56;21005;-36
2023/06/18 15:25:40;;;;;;;8.88;8.07;;;24.00;64.60;;;;;;4615755;56;21507;-35
2023/06/18 15:30:41;;;;;;;8.95;8.15;;;24.00;64.60;;;;;;4691660;56;21037;-38
2023/06/18 15:35:42;;;;;;;9.30;8.40;;;24.00;64.70;;;;;;4623897;56;21535;-37
2023/06/18 15:40:43;;;;;;;9.60;8.70;;;24.00;64.60;;;;;;4633466;56;21129;-36
2023/06/18 15:45:44;;;;;;;8.98;8.07;;;24.00;64.70;;;;;;4769049;56;21642;-37
2023/06/18 15:50:47;;;;;;;10.00;9.00;;;24.00;64.70;;;;;;4640508;56;21025;-36
2023/06/18 15:55:48;;;;;;;10.05;9.05;;;24.00;64.70;;;;;;4615219;57;21029;-38
2023/06/18 16:00:52;;;;;;;8.60;7.80;;;24.00;64.70;;;;;;4668445;56;21005;-38
2023/06/18 16:05:52;;;;;;;9.27;8.38;;;24.00;64.80;;;;;;4615628;56;21036;-36
2023/06/18 16:10:53;;;;;;;10.60;9.60;;;24.00;64.70;;;;;;4674642;56;21097;-34
2023/06/18 16:15:54;;;;;;;9.95;8.95;;;24.00;64.50;;;;;;4614806;60;21499;-36
2023/06/18 16:20:55;;;;;;;9.52;8.65;;;24.00;65.40;;;;;;4683183;56;21101;-35
2023/06/18 16:25:56;;;;;;;10.60;9.60;;;24.00;64.50;;;;;;4738890;56;21097;-36
2023/06/18 16:30:57;;;;;;;9.82;8.90;;;24.00;64.70;;;;;;4617978;56;21507;-37
2023/06/18 16:35:58;;;;;;;10.02;9.02;;;24.00;64.70;;;;;;4634718;56;21033;-38
2023/06/18 16:40:59;;;;;;;9.38;8.55;;;24.00;64.80;;;;;;4643641;56;21117;-37
2023/06/18 16:45:59;;;;;;;9.88;8.98;;;24.00;64.80;;;;;;4737003;56;21178;-36
2023/06/18 16:51:01;;;;;;;9.52;8.60;;;24.00;64.80;;;;;;4667783;56;21084;-38
2023/06/18 16:56:02;;;;;;;9.75;8.75;;;24.00;64.70;;;;;;4643741;56;21049;-36
2023/06/18 17:01:02;;;;;;;9.95;8.95;;;24.00;64.70;;;;;;4667729;56;21037;-39
2023/06/18 17:06:03;;;;;;;9.63;8.68;;;24.00;64.70;;;;;;4646823;56;21062;-37
2023/06/18 17:11:06;;;;;;;9.10;8.27;;;24.00;64.60;;;;;;4763912;56;21523;-36
2023/06/18 17:16:07;;;;;;;10.07;9.07;;;24.00;64.70;;;;;;4665706;56;21105;-37
2023/06/18 17:21:08;;;;;;;9.40;8.50;;;24.00;64.70;;;;;;4659214;56;21539;-35
2023/06/18 17:26:10;;;;;;;10.45;9.40;;;24.00;64.70;;;;;;4615287;56;21080;-34
2023/06/18 17:31:12;;;;;;;10.38;9.38;;;24.00;64.70;;;;;;4615350;60;21595;-38
2023/06/18 17:36:14;;;;;;;9.65;8.75;;;24.00;64.70;;;;;;4648593;56;21096;-37
2023/06/18 17:41:15;;;;;;;8.85;8.05;;;24.00;65.00;;;;;;4732098;56;21077;-34
2023/06/18 17:46:16;;;;;;;9.43;8.52;;;24.00;64.80;;;;;;4615378;60;21037;-36
2023/06/18 17:51:17;;;;;;;10.02;9.13;;;24.10;64.90;;;;;;4678065;56;21033;-36
2023/06/18 17:56:19;;;;;;;8.73;7.90;;;24.00;64.80;;;;;;4634241;56;21017;-36
2023/06/18 18:01:20;;;;;;;10.00;9.10;;;24.00;64.90;;;;;;4617055;56;21499;-36
2023/06/18 18:06:21;;;;;;;9.55;8.50;;;24.00;64.80;;;;;;4630174;56;21021;-38
2023/06/18 18:11:27;;;;;;;9.05;8.20;;;24.10;64.80;;;;;;4713717;56;21671;-38
2023/06/18 18:16:28;;;;;;;9.03;8.23;;;24.00;64.80;;;;;;4615126;60;21045;-38
2023/06/18 18:21:29;;;;;;;10.27;9.15;;;24.10;64.80;;;;;;4615391;60;21097;-36
2023/06/18 18:26:31;;;;;;;10.18;9.18;;;24.10;64.70;;;;;;4615419;60;21009;-37
2023/06/18 18:31:32;;;;;;;9.65;8.75;;;24.10;64.80;;;;;;4651286;56;21511;-36
2023/06/18 18:36:32;;;;;;;9.88;8.88;;;24.10;64.90;;;;;;4714488;56;21033;-37
2023/06/18 18:41:33;;;;;;;9.85;8.93;;;24.10;65.00;;;;;;4636134;56;21598;-38
2023/06/18 18:46:34;;;;;;;10.25;9.25;;;24.00;65.00;;;;;;4641902;56;21081;-37
2023/06/18 18:51:35;;;;;;;9.70;8.75;;;24.00;64.90;;;;;;4621203;56;21016;-36
2023/06/18 18:56:36;;;;;;;9.73;8.82;;;24.00;64.90;;;;;;4614965;60;21511;-34
2023/06/18 19:01:40;;;;;;;9.32;8.45;;;24.00;65.10;;;;;;4696595;56;21036;-36
2023/06/18 19:06:40;;;;;;;9.52;8.63;;;24.00;65.00;;;;;;4705182;56;21560;-36
2023/06/18 19:11:41;;;;;;;9.07;8.27;;;24.00;65.10;;;;;;4675560;56;21093;-38
2023/06/18 19:16:43;;;;;;;8.57;7.78;;;24.00;65.10;;;;;;4614457;60;21025;-36
2023/06/18 19:21:43;;;;;;;9.23;8.43;;;24.00;65.20;;;;;;4641396;56;21555;-37
2023/06/18 19:26:44;;;;;;;9.20;8.40;;;24.00;65.20;;;;;;4709870;56;21117;-38
2023/06/18 19:31:45;;;;;;;9.77;8.88;;;24.00;65.20;;;;;;4695275;56;21096;-34
2023/06/18 19:36:46;;;;;;;9.18;8.27;;;24.00;65.20;;;;;;4614815;56;21497;-36
2023/06/18 19:41:47;;;;;;;9.50;8.60;;;24.00;65.20;;;;;;4614875;60;21061;-35
2023/06/18 19:46:48;;;;;;;8.88;7.97;;;24.00;65.20;;;;;;4666081;56;21069;-37
2023/06/18 19:51:48;;;;;;;9.20;8.30;;;24.00;65.20;;;;;;4615543;60;21137;-37
2023/06/18 19:56:49;;;;;;;9.02;8.15;;;24.00;65.20;;;;;;4614729;60;21112;-37
2023/06/18 20:01:50;;;;;;;9.77;8.30;;;24.00;65.30;;;;;;4653647;56;21085;-38
2023/06/18 20:06:51;;;;;;;8.90;8.02;;;24.00;65.20;;;;;;4675073;56;21049;-34
2023/06/18 20:11:52;;;;;;;9.48;8.55;;;24.00;65.20;;;;;;4713927;56;21515;-35
2023/06/18 20:16:56;;;;;;;9.40;8.50;;;24.00;65.30;;;;;;4710604;56;21093;-38
2023/06/18 20:21:57;;;;;;;8.73;7.85;;;24.00;65.30;;;;;;4615626;57;21084;-37
2023/06/18 20:26:58;;;;;;;9.13;8.30;;;24.00;65.30;;;;;;4615684;60;21017;-39
2023/06/18 20:31:59;;;;;;;8.95;8.15;;;24.00;65.30;;;;;;4633875;56;21959;-38
2023/06/18 20:36:59;;;;;;;9.48;8.48;;;24.00;65.30;;;;;;4647206;56;21041;-37
2023/06/18 20:42:00;;;;;;;8.77;7.97;;;24.00;65.30;;;;;;4654297;56;21141;-37
2023/06/18 20:47:01;;;;;;;10.18;8.90;;;24.00;65.40;;;;;;4615571;60;21049;-41
2023/06/18 20:52:04;;;;;;;9.60;8.63;;;24.00;65.40;;;;;;4615223;60;21044;-36
2023/06/18 20:57:07;;;;;;;9.20;8.30;;;24.00;65.40;;;;;;4670471;56;21503;-37
2023/06/18 21:02:08;;;;;;;8.10;7.30;;;24.00;65.40;;;;;;4650797;56;21544;-34
2023/06/18 21:07:10;;;;;;;9.20;8.30;;;24.00;65.30;;;;;;4621882;56;21071;-37
2023/06/18 21:12:12;;;;;;;8.90;8.05;;;24.00;65.40;;;;;;4615605;60;21061;-35
2023/06/18 21:17:14;;;;;;;8.52;7.75;;;24.00;65.40;;;;;;4617937;56;21610;-33
2023/06/18 21:22:17;;;;;;;8.30;7.50;;;24.00;65.40;;;;;;4632072;56;21025;-36
2023/06/18 21:27:17;;;;;;;8.95;8.05;;;24.00;65.40;;;;;;4631240;56;21013;-35
2023/06/18 21:32:18;;;;;;;9.25;8.45;;;24.00;65.40;;;;;;4692560;56;21029;-37
2023/06/18 21:37:19;;;;;;;9.23;8.32;;;24.00;66.10;;;;;;4662879;56;21029;-37
2023/06/18 21:42:21;;;;;;;8.80;8.00;;;24.00;65.40;;;;;;4623598;56;21140;-36
2023/06/18 21:47:21;;;;;;;8.10;7.40;;;24.00;65.40;;;;;;4639981;56;21045;-36
2023/06/18 21:52:24;;;;;;;8.70;7.90;;;24.00;65.40;;;;;;4720598;56;21475;-35
2023/06/18 21:57:27;;;;;;;9.23;8.32;;;24.00;65.40;;;;;;4704984;56;21566;-36
2023/06/18 22:02:28;;;;;;;8.57;7.87;;;24.00;65.40;;;;;;4659185;56;21021;-35
2023/06/18 22:07:29;;;;;;;8.75;7.95;;;24.00;65.40;;;;;;4740670;56;21076;-38
2023/06/18 22:12:31;;;;;;;9.10;8.20;;;24.00;65.50;;;;;;4862293;56;21363;-37
2023/06/18 22:17:32;;;;;;;8.23;7.35;;;24.00;65.40;;;;;;4615489;60;21057;-36
2023/06/18 22:22:34;;;;;;;7.70;7.05;;;24.00;65.40;;;;;;4686690;56;21481;-37
2023/06/18 22:27:35;;;;;;;8.18;7.37;;;24.00;65.40;;;;;;4632407;56;22081;-38
2023/06/18 22:32:36;;;;;;;9.25;8.38;;;24.00;65.50;;;;;;4658060;56;21033;-36
2023/06/18 22:37:36;;;;;;;8.32;7.53;;;24.00;65.50;;;;;;4716205;56;21579;-36
2023/06/18 22:42:38;;;;;;;8.20;7.40;;;24.00;65.50;;;;;;4637515;56;21121;-35
2023/06/18 22:47:38;;;;;;;8.70;7.90;;;24.00;65.40;;;;;;4644218;56;21631;-37
2023/06/18 22:52:39;;;;;;;9.23;8.32;;;24.00;65.50;;;;;;4622439;56;21165;-35
2023/06/18 22:57:46;;;;;;;7.97;7.25;;;24.00;65.40;;;;;;4694600;56;21155;-37
2023/06/18 23:02:47;;;;;;;8.65;7.72;;;24.00;65.50;;;;;;4625497;56;21619;-36
2023/06/18 23:07:48;;;;;;;8.30;7.45;;;24.00;65.40;;;;;;4625340;56;21515;-38
2023/06/18 23:12:49;;;;;;;8.23;7.47;;;24.00;65.50;;;;;;4630540;56;21037;-38
2023/06/18 23:17:50;;;;;;;8.23;7.43;;;24.00;65.50;;;;;;4669845;56;21483;-37
2023/06/18 23:22:50;;;;;;;7.87;7.18;;;24.00;65.50;;;;;;4804707;56;21547;-35
2023/06/18 23:27:52;;;;;;;9.23;8.35;;;24.00;65.40;;;;;;4693070;56;21085;-37
2023/06/18 23:32:53;;;;;;;7.80;7.10;;;24.00;65.50;;;;;;4658724;56;21575;-37
2023/06/18 23:37:55;;;;;;;7.43;6.82;;;24.00;65.50;;;;;;4637032;56;21073;-36
2023/06/18 23:42:56;;;;;;;8.77;7.97;;;24.00;65.40;;;;;;4719162;56;21061;-38
2023/06/18 23:47:59;;;;;;;8.75;7.95;;;24.00;65.40;;;;;;4649997;56;21547;-35
2023/06/18 23:53:00;;;;;;;8.10;7.30;;;24.00;65.40;;;;;;4633045;56;21504;-36
2023/06/18 23:58:01;;;;;;;8.10;7.30;;;23.90;65.40;;;;;;4793734;56;21021;-38
